createdAt,value
2019-06-15T00:02:10.398Z,9.10
2019-06-15T00:04:46.774Z,8.65
2019-06-15T00:07:22.938Z,6.30
2019-06-15T00:09:59.190Z,6.87
2019-06-15T00:12:35.649Z,5.37
2019-06-15T00:15:11.990Z,8.93
2019-06-15T00:17:48.113Z,7.83
2019-06-15T00:20:24.986Z,7.00
2019-06-15T00:23:00.804Z,7.08
2019-06-15T00:25:36.626Z,8.10
2019-06-15T00:28:12.818Z,4.87
2019-06-15T00:30:50.053Z,8.00
2019-06-15T00:33:26.658Z,6.03
2019-06-15T00:36:03.842Z,5.80
2019-06-15T00:38:41.334Z,6.17
2019-06-15T00:41:17.609Z,7.42
2019-06-15T00:43:54.328Z,5.62
2019-06-15T00:46:32.122Z,6.75
2019-06-15T00:49:08.247Z,6.33
2019-06-15T00:51:44.595Z,5.45
2019-06-15T00:54:21.383Z,5.20
2019-06-15T00:56:58.177Z,5.03
2019-06-15T00:59:35.441Z,5.55
2019-06-15T01:02:11.905Z,3.72
2019-06-15T01:04:48.129Z,6.00
2019-06-15T01:07:24.658Z,5.65
2019-06-15T01:10:01.117Z,4.87
2019-06-15T01:12:38.390Z,7.15
2019-06-15T01:15:15.181Z,4.03
2019-06-15T01:17:52.895Z,4.03
2019-06-15T01:20:29.385Z,6.97
2019-06-15T01:23:05.134Z,5.12
2019-06-15T01:25:41.525Z,6.90
2019-06-15T01:28:18.829Z,5.20
2019-06-15T01:30:55.450Z,6.17
2019-06-15T01:33:31.249Z,4.92
2019-06-15T01:36:07.978Z,4.17
2019-06-15T01:38:44.538Z,4.60
2019-06-15T01:41:20.773Z,4.83
2019-06-15T01:43:56.942Z,7.08
2019-06-15T01:46:33.348Z,6.10
2019-06-15T01:49:10.190Z,7.75
2019-06-15T01:51:46.041Z,8.95
2019-06-15T01:54:22.696Z,5.83
2019-06-15T01:56:59.660Z,5.55
2019-06-15T01:59:36.281Z,6.12
2019-06-15T02:02:12.125Z,7.87
2019-06-15T02:04:48.467Z,7.00
2019-06-15T02:07:26.292Z,4.75
2019-06-15T02:10:02.615Z,3.90
2019-06-15T02:12:38.938Z,5.92
2019-06-15T02:15:16.145Z,3.70
2019-06-15T02:17:52.747Z,5.60
2019-06-15T02:20:29.174Z,6.37
2019-06-15T02:23:06.028Z,5.75
2019-06-15T02:25:42.366Z,5.45
2019-06-15T02:28:18.557Z,7.53
2019-06-15T02:30:54.964Z,6.10
2019-06-15T02:33:31.076Z,4.60
2019-06-15T02:36:07.873Z,7.92
2019-06-15T02:38:44.424Z,7.40
2019-06-15T02:41:21.206Z,10.15
2019-06-15T02:43:57.058Z,5.42
2019-06-15T02:46:33.304Z,7.42
2019-06-15T02:49:09.582Z,5.15
2019-06-15T02:51:46.876Z,5.85
2019-06-15T02:54:23.561Z,6.90
2019-06-15T02:56:59.706Z,6.55
2019-06-15T02:59:36.052Z,4.35
2019-06-15T03:02:12.255Z,4.50
2019-06-15T03:04:48.094Z,5.15
2019-06-15T03:07:24.750Z,8.03
2019-06-15T03:10:01.912Z,4.92
2019-06-15T03:12:39.985Z,7.83
2019-06-15T03:15:16.299Z,3.98
2019-06-15T03:17:52.016Z,6.17
2019-06-15T03:20:27.966Z,7.90
2019-06-15T03:23:03.670Z,8.98
2019-06-15T03:25:39.851Z,8.60
2019-06-15T03:28:16.486Z,5.87
2019-06-15T03:30:52.667Z,5.75
2019-06-15T03:33:29.018Z,6.70
2019-06-15T03:36:05.494Z,6.12
2019-06-15T03:38:42.250Z,5.33
2019-06-15T03:41:18.744Z,10.82
2019-06-15T03:43:54.987Z,5.85
2019-06-15T03:46:31.085Z,5.50
2019-06-15T03:49:07.415Z,7.45
2019-06-15T03:51:43.793Z,7.33
2019-06-15T03:54:20.079Z,6.90
2019-06-15T03:56:56.008Z,5.47
2019-06-15T03:59:32.173Z,8.83
2019-06-15T04:02:08.144Z,7.08
2019-06-15T04:04:44.603Z,5.87
2019-06-15T04:07:21.280Z,6.42
2019-06-15T04:09:58.353Z,6.83
2019-06-15T04:12:34.937Z,7.92
2019-06-15T04:15:11.192Z,5.72
2019-06-15T04:17:47.492Z,7.12
2019-06-15T04:20:23.200Z,6.95
2019-06-15T04:22:59.627Z,7.53
2019-06-15T04:25:35.803Z,6.62
2019-06-15T04:28:12.303Z,6.62
2019-06-15T04:30:48.476Z,7.22
2019-06-15T04:33:24.428Z,6.00
2019-06-15T04:36:00.655Z,4.70
2019-06-15T04:38:37.151Z,7.47
2019-06-15T04:41:14.100Z,8.68
2019-06-15T04:43:50.478Z,6.60
2019-06-15T04:46:26.368Z,6.03
2019-06-15T04:49:02.485Z,5.50
2019-06-15T04:51:38.792Z,7.15
2019-06-15T04:54:15.064Z,6.92
2019-06-15T04:56:51.470Z,4.75
2019-06-15T04:59:28.294Z,6.97
2019-06-15T05:02:04.668Z,6.05
2019-06-15T05:04:40.689Z,7.58
2019-06-15T05:07:16.909Z,6.47
2019-06-15T05:09:53.459Z,8.13
2019-06-15T05:12:30.249Z,4.60
2019-06-15T05:15:06.558Z,5.05
2019-06-15T05:17:42.539Z,5.67
2019-06-15T05:20:18.395Z,4.90
2019-06-15T05:22:54.312Z,8.90
2019-06-15T05:25:30.689Z,8.50
2019-06-15T05:28:06.666Z,6.05
2019-06-15T05:30:42.766Z,7.25
2019-06-15T05:33:19.037Z,5.42
2019-06-15T05:35:55.192Z,8.35
2019-06-15T05:38:32.045Z,8.38
2019-06-15T05:41:08.161Z,5.05
2019-06-15T05:43:44.646Z,4.80
2019-06-15T05:46:20.715Z,9.48
2019-06-15T05:48:57.485Z,8.43
2019-06-15T05:51:33.793Z,6.12
2019-06-15T05:54:10.006Z,5.53
2019-06-15T05:56:45.903Z,6.70
2019-06-15T05:59:22.295Z,4.95
2019-06-15T06:01:59.066Z,7.60
2019-06-15T06:04:34.953Z,6.37
2019-06-15T06:07:10.872Z,4.83
2019-06-15T06:09:46.748Z,5.33
2019-06-15T06:12:23.065Z,7.53
2019-06-15T06:14:59.797Z,6.53
2019-06-15T06:17:36.721Z,5.62
2019-06-15T06:20:13.065Z,9.55
2019-06-15T06:22:48.771Z,9.83
2019-06-15T06:25:25.253Z,9.50
2019-06-15T06:28:02.129Z,6.97
2019-06-15T06:30:38.097Z,18.30
2019-06-15T06:33:14.244Z,15.25
2019-06-15T06:35:50.198Z,17.25
2019-06-15T06:38:26.674Z,15.85
2019-06-15T06:41:03.946Z,17.75
2019-06-15T06:43:41.331Z,26.70
2019-06-15T06:46:17.317Z,23.38
2019-06-15T06:48:53.435Z,16.93
2019-06-15T06:51:29.743Z,15.98
2019-06-15T06:54:06.274Z,15.95
2019-06-15T06:56:42.419Z,9.23
2019-06-15T06:59:19.001Z,14.90
2019-06-15T07:01:55.169Z,7.97
2019-06-15T07:04:30.927Z,9.98
2019-06-15T07:07:07.874Z,10.68
2019-06-15T07:09:43.561Z,9.35
2019-06-15T07:12:21.091Z,9.50
2019-06-15T07:14:57.299Z,9.18
2019-06-15T07:17:33.785Z,8.75
2019-06-15T07:20:10.113Z,10.38
2019-06-15T07:22:46.685Z,7.37
2019-06-15T07:25:23.565Z,7.08
2019-06-15T07:28:08.054Z,8.63
2019-06-15T07:30:37.818Z,6.42
2019-06-15T07:33:15.238Z,4.00
2019-06-15T07:35:52.153Z,6.28
2019-06-15T07:38:28.875Z,5.45
2019-06-15T07:41:04.973Z,7.80
2019-06-15T07:43:41.435Z,7.60
2019-06-15T07:46:17.991Z,6.60
2019-06-15T07:48:55.166Z,7.35
2019-06-15T07:51:31.923Z,7.05
2019-06-15T07:54:08.266Z,4.95
2019-06-15T07:56:44.217Z,6.20
2019-06-15T07:59:20.612Z,4.87
2019-06-15T08:01:57.094Z,5.20
2019-06-15T08:04:33.556Z,8.33
2019-06-15T08:07:09.756Z,7.47
2019-06-15T08:09:46.914Z,6.50
2019-06-15T08:12:23.573Z,4.95
2019-06-15T08:14:59.973Z,10.35
2019-06-15T08:17:36.412Z,5.25
2019-06-15T08:20:13.714Z,5.42
2019-06-15T08:22:50.340Z,5.10
2019-06-15T08:25:26.468Z,3.45
2019-06-15T08:28:02.385Z,3.80
2019-06-15T08:30:43.156Z,4.35
2019-06-15T08:33:19.932Z,4.15
2019-06-15T08:35:56.394Z,4.12
2019-06-15T08:38:33.586Z,4.75
2019-06-15T08:41:10.646Z,5.70
2019-06-15T08:43:47.245Z,4.15
2019-06-15T08:46:35.573Z,4.75
2019-06-15T08:49:13.587Z,4.35
2019-06-15T08:51:50.145Z,4.12
2019-06-15T08:54:26.831Z,2.80
2019-06-15T08:57:03.859Z,5.67
2019-06-15T08:59:39.943Z,3.70
2019-06-15T09:02:15.874Z,3.83
2019-06-15T09:04:51.866Z,2.67
2019-06-15T09:07:28.254Z,2.52
2019-06-15T09:10:05.528Z,6.00
2019-06-15T09:12:41.577Z,3.67
2019-06-15T09:15:28.560Z,2.58
2019-06-15T09:18:04.628Z,3.25
2019-06-15T09:20:40.917Z,3.02
2019-06-15T09:23:17.506Z,4.15
2019-06-15T09:25:54.044Z,2.67
2019-06-15T09:28:30.590Z,3.50
2019-06-15T09:31:07.561Z,4.08
2019-06-15T09:33:44.080Z,2.80
2019-06-15T09:36:20.319Z,3.62
2019-06-15T09:38:56.922Z,2.98
2019-06-15T09:41:33.238Z,2.33
2019-06-15T09:44:09.501Z,2.47
2019-06-15T09:46:45.775Z,1.47
2019-06-15T09:49:21.621Z,2.02
2019-06-15T09:51:57.653Z,2.55
2019-06-15T09:54:33.661Z,2.27
2019-06-15T09:57:10.306Z,2.02
2019-06-15T09:59:46.850Z,3.47
2019-06-15T10:02:23.805Z,2.52
2019-06-15T10:04:59.852Z,3.95
2019-06-15T10:07:36.209Z,4.45
2019-06-15T10:10:12.621Z,4.20
2019-06-15T10:12:49.363Z,2.87
2019-06-15T10:15:26.290Z,4.40
2019-06-15T10:18:03.094Z,5.45
2019-06-15T10:20:39.430Z,2.10
2019-06-15T10:23:15.469Z,3.80
2019-06-15T10:25:54.165Z,4.97
2019-06-15T10:28:30.106Z,3.20
2019-06-15T10:31:06.544Z,2.80
2019-06-15T10:33:43.682Z,2.25
2019-06-15T10:36:20.332Z,3.37
2019-06-15T10:38:56.776Z,1.82
2019-06-15T10:41:33.063Z,2.33
2019-06-15T10:44:09.474Z,2.98
2019-06-15T10:46:45.749Z,3.27
2019-06-15T10:49:23.159Z,3.65
2019-06-15T10:51:59.509Z,3.42
2019-06-15T10:54:35.961Z,2.45
2019-06-15T10:57:12.836Z,4.85
2019-06-15T10:59:57.444Z,4.37
2019-06-15T11:02:27.052Z,2.33
2019-06-15T11:05:03.931Z,3.70
2019-06-15T11:07:39.822Z,3.08
2019-06-15T11:10:25.006Z,4.65
2019-06-15T11:13:02.075Z,2.87
2019-06-15T11:15:39.940Z,3.50
2019-06-15T11:18:16.468Z,2.85
2019-06-15T11:20:53.709Z,3.27
2019-06-15T11:23:29.930Z,2.05
2019-06-15T11:26:06.185Z,1.70
2019-06-15T11:28:42.876Z,3.33
2019-06-15T11:31:18.758Z,2.45
2019-06-15T11:33:54.979Z,2.83
2019-06-15T11:36:31.103Z,2.25
2019-06-15T11:39:08.810Z,2.70
2019-06-15T11:41:45.719Z,2.20
2019-06-15T11:44:21.959Z,2.30
2019-06-15T11:46:57.784Z,2.25
2019-06-15T11:49:34.766Z,1.65
2019-06-15T11:52:11.314Z,3.10
2019-06-15T11:54:47.576Z,3.17
2019-06-15T11:57:23.981Z,4.05
2019-06-15T12:00:00.501Z,3.52
2019-06-15T12:02:36.629Z,2.27
2019-06-15T12:05:13.366Z,2.15
2019-06-15T12:07:50.417Z,2.12
2019-06-15T12:10:27.202Z,3.30
2019-06-15T12:13:04.568Z,4.17
2019-06-15T12:15:40.838Z,4.08
2019-06-15T12:18:17.007Z,3.85
2019-06-15T12:20:53.771Z,3.00
2019-06-15T12:23:30.043Z,6.40
2019-06-15T12:26:06.891Z,3.55
2019-06-15T12:28:43.896Z,7.25
2019-06-15T12:31:20.036Z,5.85
2019-06-15T12:33:56.055Z,6.50
2019-06-15T12:36:32.205Z,7.12
2019-06-15T12:39:08.540Z,8.35
2019-06-15T12:41:44.724Z,4.90
2019-06-15T12:44:22.089Z,4.25
2019-06-15T12:46:58.676Z,6.12
2019-06-15T12:49:34.951Z,5.40
2019-06-15T12:52:11.081Z,7.45
2019-06-15T12:54:47.783Z,5.85
2019-06-15T12:57:24.336Z,6.65
2019-06-15T13:00:01.290Z,4.90
2019-06-15T13:02:37.708Z,3.37
2019-06-15T13:05:14.217Z,4.83
2019-06-15T13:07:50.710Z,6.17
2019-06-15T13:10:26.741Z,5.45
2019-06-15T13:13:03.324Z,6.50
2019-06-15T13:15:40.125Z,3.00
2019-06-15T13:18:16.192Z,3.30
2019-06-15T13:20:52.525Z,4.87
2019-06-15T13:23:29.044Z,4.47
2019-06-15T13:26:05.585Z,4.58
2019-06-15T13:28:41.626Z,2.45
2019-06-15T13:31:18.689Z,4.15
2019-06-15T13:33:55.243Z,1.98
2019-06-15T13:36:32.021Z,2.62
2019-06-15T13:39:08.615Z,3.27
2019-06-15T13:41:45.060Z,2.70
2019-06-15T13:44:21.753Z,4.45
2019-06-15T13:46:57.619Z,3.17
2019-06-15T13:49:34.600Z,2.70
2019-06-15T13:52:11.137Z,4.00
2019-06-15T13:54:47.635Z,5.50
2019-06-15T13:57:23.780Z,3.50
2019-06-15T13:59:59.477Z,3.80
2019-06-15T14:02:36.050Z,3.12
2019-06-15T14:05:11.924Z,2.77
2019-06-15T14:07:48.725Z,3.35
2019-06-15T14:10:25.885Z,2.75
2019-06-15T14:13:02.150Z,2.42
2019-06-15T14:15:38.502Z,1.95
2019-06-15T14:18:14.900Z,1.90
2019-06-15T14:20:51.286Z,2.75
2019-06-15T14:23:27.350Z,3.02
2019-06-15T14:26:03.388Z,2.55
2019-06-15T14:28:40.490Z,1.75
2019-06-15T14:31:16.893Z,3.52
2019-06-15T14:33:52.597Z,2.08
2019-06-15T14:36:29.083Z,3.05
2019-06-15T14:39:07.873Z,1.80
2019-06-15T14:41:48.576Z,2.90
2019-06-15T14:44:23.970Z,3.08
2019-06-15T14:47:00.129Z,4.05
2019-06-15T14:49:36.528Z,3.95
2019-06-15T14:52:13.066Z,2.12
2019-06-15T14:54:48.661Z,3.60
2019-06-15T14:57:27.028Z,3.58
2019-06-15T15:00:05.993Z,2.98
2019-06-15T15:02:41.452Z,3.77
2019-06-15T15:05:18.628Z,3.10
2019-06-15T15:07:56.236Z,4.20
2019-06-15T15:10:33.219Z,2.42
2019-06-15T15:13:09.184Z,2.67
2019-06-15T15:15:46.806Z,2.67
2019-06-15T15:18:23.553Z,4.12
2019-06-15T15:21:00.297Z,3.85
2019-06-15T15:23:36.270Z,4.60
2019-06-15T15:26:12.651Z,2.30
2019-06-15T15:28:50.224Z,2.40
2019-06-15T15:31:27.233Z,4.65
2019-06-15T15:34:05.333Z,2.70
2019-06-15T15:36:41.121Z,2.85
2019-06-15T15:39:17.989Z,2.72
2019-06-15T15:41:56.264Z,3.12
2019-06-15T15:44:33.037Z,2.52
2019-06-15T15:47:09.624Z,3.70
2019-06-15T15:49:47.271Z,2.47
2019-06-15T15:52:26.925Z,6.50
2019-06-15T15:55:02.854Z,4.78
2019-06-15T15:57:39.209Z,5.50
2019-06-15T16:00:27.103Z,5.28
2019-06-15T16:03:03.609Z,3.30
2019-06-15T16:05:39.482Z,4.42
2019-06-15T16:08:16.513Z,6.17
2019-06-15T16:10:52.898Z,4.08
2019-06-15T16:13:30.133Z,7.22
2019-06-15T16:16:06.338Z,6.20
2019-06-15T16:18:42.665Z,6.78
2019-06-15T16:21:18.522Z,6.03
2019-06-15T16:23:58.143Z,4.35
2019-06-15T16:26:33.133Z,7.65
2019-06-15T16:29:09.821Z,6.47
2019-06-15T16:31:46.286Z,3.77
2019-06-15T16:34:23.131Z,5.50
2019-06-15T16:36:59.160Z,5.05
2019-06-15T16:39:36.163Z,6.95
2019-06-15T16:42:13.296Z,4.05
2019-06-15T16:44:50.687Z,3.60
2019-06-15T16:47:27.498Z,4.25
2019-06-15T16:50:06.692Z,4.72
2019-06-15T16:52:42.879Z,4.25
2019-06-15T16:55:19.563Z,2.58
2019-06-15T16:57:56.604Z,5.62
2019-06-15T17:00:32.922Z,4.17
2019-06-15T17:03:20.824Z,3.83
2019-06-15T17:05:46.795Z,4.10
2019-06-15T17:08:22.768Z,3.60
2019-06-15T17:10:58.453Z,4.55
2019-06-15T17:13:37.029Z,3.72
2019-06-15T17:16:13.333Z,3.70
2019-06-15T17:18:49.260Z,3.20
2019-06-15T17:21:26.202Z,3.55
2019-06-15T17:24:02.715Z,3.85
2019-06-15T17:26:39.523Z,3.98
2019-06-15T17:29:16.307Z,3.47
2019-06-15T17:31:53.656Z,3.60
2019-06-15T17:34:30.169Z,5.03
2019-06-15T17:37:08.545Z,4.28
2019-06-15T17:39:46.659Z,3.35
2019-06-15T17:42:25.942Z,4.35
2019-06-15T17:45:01.355Z,11.38
2019-06-15T17:47:37.803Z,9.95
2019-06-15T17:50:16.936Z,6.80
2019-06-15T17:52:52.808Z,4.30
2019-06-15T17:55:29.682Z,3.90
2019-06-15T17:58:06.699Z,3.67
2019-06-15T18:00:46.930Z,4.65
2019-06-15T18:03:22.646Z,4.03
2019-06-15T18:05:59.080Z,3.95
2019-06-15T18:08:37.198Z,5.33
2019-06-15T18:11:16.607Z,4.78
2019-06-15T18:13:53.385Z,3.33
2019-06-15T18:16:31.825Z,4.20
2019-06-15T18:19:08.336Z,2.83
2019-06-15T18:21:46.691Z,2.90
2019-06-15T18:24:26.577Z,3.85
2019-06-15T18:27:06.285Z,4.70
2019-06-15T18:29:41.798Z,3.12
2019-06-15T18:32:18.210Z,5.67
2019-06-15T18:34:56.091Z,5.03
2019-06-15T18:37:33.188Z,3.85
2019-06-15T18:40:10.005Z,4.97
2019-06-15T18:42:46.481Z,3.22
2019-06-15T18:45:23.610Z,3.40
2019-06-15T18:48:01.081Z,5.28
2019-06-15T18:50:39.308Z,2.72
2019-06-15T18:53:15.752Z,3.98
2019-06-15T18:55:51.837Z,4.58
2019-06-15T18:58:28.050Z,7.08
2019-06-15T19:01:06.682Z,6.60
2019-06-15T19:03:42.155Z,4.65
2019-06-15T19:06:18.601Z,4.58
2019-06-15T19:08:57.266Z,3.75
2019-06-15T19:11:33.446Z,4.22
2019-06-15T19:14:09.769Z,3.90
2019-06-15T19:16:47.182Z,3.85
2019-06-15T19:19:26.337Z,4.30
2019-06-15T19:22:01.526Z,2.92
2019-06-15T19:24:37.404Z,3.08
2019-06-15T19:27:16.108Z,4.80
2019-06-15T19:29:53.008Z,6.03
2019-06-15T19:32:29.395Z,3.27
2019-06-15T19:35:06.806Z,3.70
2019-06-15T19:37:43.135Z,3.50
2019-06-15T19:40:19.217Z,4.08
2019-06-15T19:42:57.026Z,5.15
2019-06-15T19:45:33.487Z,3.92
2019-06-15T19:48:11.105Z,2.80
2019-06-15T19:50:47.461Z,3.05
2019-06-15T19:53:23.712Z,3.77
2019-06-15T19:56:00.039Z,2.67
2019-06-15T19:58:37.483Z,4.05
2019-06-15T20:01:13.921Z,3.65
2019-06-15T20:03:51.361Z,5.25
2019-06-15T20:06:27.568Z,3.55
2019-06-15T20:09:06.897Z,7.22
2019-06-15T20:11:46.644Z,3.60
2019-06-15T20:14:22.038Z,4.45
2019-06-15T20:16:58.985Z,3.20
2019-06-15T20:19:37.510Z,4.42
2019-06-15T20:22:13.777Z,3.95
2019-06-15T20:24:50.233Z,9.75
2019-06-15T20:27:27.147Z,5.47
2019-06-15T20:30:06.284Z,5.40
2019-06-15T20:32:42.916Z,7.15
2019-06-15T20:35:21.411Z,4.80
2019-06-15T20:37:58.078Z,6.72
2019-06-15T20:40:53.514Z,7.78
2019-06-15T20:43:30.242Z,6.83
2019-06-15T20:46:07.051Z,5.83
2019-06-15T20:48:43.523Z,4.97
2019-06-15T20:51:20.258Z,5.40
2019-06-15T20:53:56.784Z,4.58
2019-06-15T20:56:33.765Z,5.40
2019-06-15T20:59:09.918Z,4.03
2019-06-15T21:01:45.998Z,3.27
2019-06-15T21:04:22.392Z,3.60
2019-06-15T21:06:58.837Z,4.33
2019-06-15T21:09:36.352Z,5.22
2019-06-15T21:12:12.713Z,3.67
2019-06-15T21:14:48.945Z,3.72
2019-06-15T21:17:27.594Z,3.62
2019-06-15T21:20:06.559Z,12.70
2019-06-15T21:22:42.671Z,15.10
2019-06-15T21:25:18.967Z,15.08
2019-06-15T21:27:56.721Z,9.55
2019-06-15T21:30:32.921Z,6.62
2019-06-15T21:33:09.203Z,5.55
2019-06-15T21:35:51.719Z,9.15
2019-06-15T21:38:26.506Z,8.28
2019-06-15T21:41:03.171Z,6.67
2019-06-15T21:43:40.335Z,11.45
2019-06-15T21:46:17.577Z,7.72
2019-06-15T21:48:56.244Z,7.28
2019-06-15T21:51:32.778Z,8.43
2019-06-15T21:54:09.954Z,10.90
2019-06-15T21:56:46.381Z,5.90
2019-06-15T21:59:25.987Z,7.30
2019-06-15T22:02:01.880Z,8.53
2019-06-15T22:04:39.010Z,8.43
2019-06-15T22:07:16.883Z,8.95
2019-06-15T22:09:54.378Z,8.83
2019-06-15T22:12:31.050Z,6.75
2019-06-15T22:15:26.619Z,6.17
2019-06-15T22:18:03.755Z,7.33
2019-06-15T22:20:41.083Z,5.70
2019-06-15T22:23:17.875Z,7.67
2019-06-15T22:25:53.844Z,5.75
2019-06-15T22:28:30.956Z,5.90
2019-06-15T22:31:07.920Z,7.10
2019-06-15T22:33:47.065Z,6.67
2019-06-15T22:36:25.508Z,6.12
2019-06-15T22:39:02.979Z,8.85
2019-06-15T22:41:58.059Z,7.20
2019-06-15T22:44:37.034Z,6.45
2019-06-15T22:47:12.528Z,8.00
2019-06-15T22:49:48.676Z,5.92
2019-06-15T22:52:26.447Z,7.37
2019-06-15T22:55:02.766Z,7.80
2019-06-15T22:57:39.297Z,7.40
2019-06-15T23:00:17.162Z,7.50
2019-06-15T23:02:53.656Z,8.23
2019-06-15T23:05:29.482Z,6.35
2019-06-15T23:08:07.051Z,7.25
2019-06-15T23:10:46.676Z,10.60
2019-06-15T23:13:22.356Z,6.42
2019-06-15T23:16:00.469Z,7.78
2019-06-15T23:18:38.142Z,7.10
2019-06-15T23:21:17.083Z,7.78
2019-06-15T23:23:53.388Z,9.15
2019-06-15T23:26:29.177Z,7.70
2019-06-15T23:29:06.880Z,9.08
2019-06-15T23:31:45.933Z,6.03
2019-06-15T23:34:21.651Z,6.33
2019-06-15T23:37:00.902Z,6.90
2019-06-15T23:39:37.179Z,9.13
2019-06-15T23:42:13.474Z,7.60
2019-06-15T23:44:50.033Z,7.40
2019-06-15T23:47:26.352Z,7.33
2019-06-15T23:50:03.032Z,6.62
2019-06-15T23:52:39.790Z,7.37
2019-06-15T23:55:17.071Z,6.05
2019-06-15T23:57:53.595Z,8.15
